createdAt,value
2022-10-19T00:01:28.776Z,97688.22
2022-10-19T00:03:55.897Z,97683.03
2022-10-19T00:06:26.856Z,97683.91
2022-10-19T00:08:55.871Z,97683.00
2022-10-19T00:11:23.767Z,97694.19
2022-10-19T00:13:50.563Z,97690.69
2022-10-19T00:16:17.375Z,97700.94
2022-10-19T00:18:44.902Z,97709.56
2022-10-19T00:21:14.819Z,97722.34
2022-10-19T00:23:41.593Z,97716.09
2022-10-19T00:26:08.489Z,97722.06
2022-10-19T00:28:35.004Z,97727.22
2022-10-19T00:31:10.901Z,97722.19
2022-10-19T00:33:37.343Z,97729.94
2022-10-19T00:36:04.794Z,97725.72
2022-10-19T00:38:31.346Z,97723.22
2022-10-19T00:40:57.749Z,97724.22
2022-10-19T00:43:26.720Z,97724.28
2022-10-19T00:45:53.207Z,97721.75
2022-10-19T00:48:30.498Z,97723.47
2022-10-19T00:50:59.575Z,97725.31
2022-10-19T00:53:28.671Z,97721.88
2022-10-19T00:55:56.515Z,97726.91
2022-10-19T00:58:22.938Z,97729.41
2022-10-19T01:00:49.416Z,97726.88
2022-10-19T01:03:15.840Z,97727.78
2022-10-19T01:05:42.670Z,97726.03
2022-10-19T01:08:10.003Z,97725.19
2022-10-19T01:11:08.474Z,97729.50
2022-10-19T01:14:03.119Z,97729.41
2022-10-19T01:16:55.712Z,97722.56
2022-10-19T01:19:48.078Z,97726.81
2022-10-19T01:22:52.217Z,97717.34
2022-10-19T01:25:24.561Z,97719.13
2022-10-19T01:28:11.088Z,97717.41
2022-10-19T01:30:56.074Z,97721.63
2022-10-19T01:36:44.046Z,97705.28
2022-10-19T01:39:13.339Z,97713.91
2022-10-19T01:41:55.770Z,97712.28
2022-10-19T01:44:25.866Z,97709.75
2022-10-19T01:46:57.171Z,97710.63
2022-10-19T01:49:32.675Z,97691.81
2022-10-19T01:52:05.524Z,97691.81
2022-10-19T01:54:38.489Z,97692.69
2022-10-19T01:57:07.486Z,97691.84
2022-10-19T01:59:36.242Z,97690.94
2022-10-19T02:02:04.727Z,97680.72
2022-10-19T02:04:33.390Z,97686.72
2022-10-19T02:07:02.464Z,97688.41
2022-10-19T02:09:28.890Z,97680.72
2022-10-19T02:11:59.032Z,97683.22
2022-10-19T02:14:31.110Z,97677.19
2022-10-19T02:17:02.409Z,97681.47
2022-10-19T02:19:28.770Z,97678.91
2022-10-19T02:21:56.475Z,97676.31
2022-10-19T02:24:22.850Z,97678.03
2022-10-19T02:26:50.135Z,97673.78
2022-10-19T02:29:16.990Z,97668.63
2022-10-19T02:31:43.724Z,97670.34
2022-10-19T02:34:10.648Z,97668.66
2022-10-19T02:36:37.042Z,97662.63
2022-10-19T02:39:03.931Z,97659.22
2022-10-19T02:41:46.924Z,97669.41
2022-10-19T02:44:23.923Z,97670.28
2022-10-19T02:47:16.157Z,97657.38
2022-10-19T02:49:44.536Z,97667.56
2022-10-19T02:52:13.359Z,97656.41
2022-10-19T02:54:42.298Z,97665.78
2022-10-19T02:57:17.711Z,97647.75
2022-10-19T02:59:44.313Z,97657.97
2022-10-19T03:02:10.674Z,97644.25
2022-10-19T03:04:37.046Z,97648.59
2022-10-19T03:07:03.633Z,97646.78
2022-10-19T03:09:30.074Z,97643.31
2022-10-19T03:11:56.437Z,97642.47
2022-10-19T03:14:22.787Z,97648.44
2022-10-19T03:16:49.191Z,97650.09
2022-10-19T03:19:15.556Z,97647.53
2022-10-19T03:21:41.891Z,97656.09
2022-10-19T03:24:08.374Z,97653.53
2022-10-19T03:26:34.739Z,97639.84
2022-10-19T03:29:01.099Z,97644.19
2022-10-19T03:31:27.515Z,97637.31
2022-10-19T03:33:53.853Z,97634.78
2022-10-19T03:36:26.485Z,97639.03
2022-10-19T03:38:55.148Z,97632.13
2022-10-19T03:41:22.869Z,97643.28
2022-10-19T03:43:49.557Z,97634.69
2022-10-19T03:46:16.308Z,97635.56
2022-10-19T03:48:43.275Z,97634.63
2022-10-19T03:51:12.962Z,97647.44
2022-10-19T03:53:40.534Z,97643.13
2022-10-19T03:56:10.856Z,97640.53
2022-10-19T03:58:39.289Z,97643.16
2022-10-19T04:01:14.525Z,97642.31
2022-10-19T04:03:41.153Z,97645.69
2022-10-19T04:06:11.270Z,97652.53
2022-10-19T04:08:37.591Z,97643.97
2022-10-19T04:11:06.477Z,97640.44
2022-10-19T04:13:34.620Z,97643.00
2022-10-19T04:16:01.159Z,97652.44
2022-10-19T04:18:27.607Z,97646.47
2022-10-19T04:21:03.300Z,97646.44
2022-10-19T04:23:32.814Z,97641.28
2022-10-19T04:26:05.884Z,97647.28
2022-10-19T04:28:33.467Z,97642.06
2022-10-19T04:31:04.195Z,97643.78
2022-10-19T04:33:30.733Z,97642.06
2022-10-19T04:36:04.446Z,97645.41
2022-10-19T04:38:31.622Z,97645.41
2022-10-19T04:41:03.167Z,97642.81
2022-10-19T04:43:29.700Z,97642.84
2022-10-19T04:45:56.143Z,97642.00
2022-10-19T04:48:22.587Z,97635.97
2022-10-19T04:50:48.955Z,97636.00
2022-10-19T04:53:15.288Z,97632.56
2022-10-19T04:55:42.307Z,97635.97
2022-10-19T04:58:09.147Z,97636.78
2022-10-19T05:00:37.957Z,97637.63
2022-10-19T05:03:04.751Z,97635.88
2022-10-19T05:05:32.315Z,97638.38
2022-10-19T05:07:58.789Z,97627.28
2022-10-19T05:10:25.241Z,97633.31
2022-10-19T05:12:51.583Z,97631.59
2022-10-19T05:15:18.108Z,97634.19
2022-10-19T05:17:44.610Z,97623.00
2022-10-19T05:20:11.452Z,97632.41
2022-10-19T05:22:38.764Z,97623.81
2022-10-19T05:25:06.645Z,97618.63
2022-10-19T05:27:33.896Z,97623.78
2022-10-19T05:30:00.516Z,97623.81
2022-10-19T05:32:28.303Z,97621.28
2022-10-19T05:34:54.720Z,97617.84
2022-10-19T05:37:21.647Z,97617.84
2022-10-19T05:39:48.131Z,97612.63
2022-10-19T05:42:14.502Z,97615.16
2022-10-19T05:44:41.047Z,97612.69
2022-10-19T05:47:07.475Z,97617.94
2022-10-19T05:49:33.988Z,97622.25
2022-10-19T05:52:00.696Z,97621.38
2022-10-19T05:54:28.524Z,97631.69
2022-10-19T05:56:55.175Z,97624.84
2022-10-19T05:59:22.332Z,97616.31
2022-10-19T06:01:48.952Z,97623.22
2022-10-19T06:06:47.111Z,97630.13
2022-10-19T06:09:13.495Z,97631.91
2022-10-19T06:11:41.368Z,97635.34
2022-10-19T06:14:11.808Z,97629.38
2022-10-19T06:16:38.584Z,97636.22
2022-10-19T06:19:05.390Z,97636.25
2022-10-19T06:21:32.872Z,97637.09
2022-10-19T06:24:02.832Z,97644.81
2022-10-19T06:26:31.675Z,97638.81
2022-10-19T06:29:00.441Z,97640.63
2022-10-19T06:31:28.230Z,97639.03
2022-10-19T06:33:55.684Z,97650.19
2022-10-19T06:36:24.789Z,97640.78
2022-10-19T06:38:51.181Z,97646.75
2022-10-19T06:41:17.582Z,97645.88
2022-10-19T06:43:44.360Z,97657.91
2022-10-19T06:46:15.502Z,97656.22
2022-10-19T06:48:41.882Z,97658.81
2022-10-19T06:51:08.544Z,97661.50
2022-10-19T06:53:36.489Z,97658.91
2022-10-19T06:56:05.787Z,97671.03
2022-10-19T06:58:36.399Z,97673.63
2022-10-19T07:01:02.926Z,97672.88
2022-10-19T07:03:30.027Z,97672.94
2022-10-19T07:05:59.239Z,97680.75
2022-10-19T07:08:27.436Z,97683.34
2022-10-19T07:10:56.603Z,97686.06
2022-10-19T07:13:23.328Z,97686.09
2022-10-19T07:15:50.201Z,97686.22
2022-10-19T07:18:16.635Z,97691.41
2022-10-19T07:20:42.969Z,97686.31
2022-10-19T07:23:09.386Z,97694.16
2022-10-19T07:25:36.371Z,97685.56
2022-10-19T07:28:03.027Z,97685.63
2022-10-19T07:30:29.411Z,97686.56
2022-10-19T07:32:55.722Z,97682.28
2022-10-19T07:35:22.134Z,97673.81
2022-10-19T07:37:48.468Z,97675.59
2022-10-19T07:40:14.915Z,97675.53
2022-10-19T07:42:41.251Z,97678.94
2022-10-19T07:45:07.847Z,97682.41
2022-10-19T07:47:34.550Z,97672.94
2022-10-19T07:50:01.118Z,97672.81
2022-10-19T07:52:27.526Z,97674.63
2022-10-19T07:54:55.289Z,97672.84
2022-10-19T07:57:22.467Z,97665.28
2022-10-19T07:59:48.812Z,97681.69
2022-10-19T08:02:16.953Z,97685.13
2022-10-19T08:04:59.618Z,97679.22
2022-10-19T08:07:28.307Z,97675.84
2022-10-19T08:09:54.799Z,97684.50
2022-10-19T08:12:21.467Z,97688.78
2022-10-19T08:14:48.251Z,97687.13
2022-10-19T08:17:17.343Z,97688.88
2022-10-19T08:19:44.994Z,97691.34
2022-10-19T08:22:11.753Z,97689.63
2022-10-19T08:24:38.534Z,97679.28
2022-10-19T08:27:05.118Z,97675.09
2022-10-19T08:29:32.000Z,97676.84
2022-10-19T08:31:58.609Z,97676.00
2022-10-19T08:34:25.382Z,97676.94
2022-10-19T08:36:51.775Z,97687.38
2022-10-19T08:39:18.243Z,97687.47
2022-10-19T08:42:19.792Z,97685.81
2022-10-19T08:45:18.740Z,97690.13
2022-10-19T08:47:48.079Z,97684.13
2022-10-19T08:50:25.076Z,97690.94
2022-10-19T08:53:22.411Z,97688.41
2022-10-19T08:56:26.927Z,97687.50
2022-10-19T08:59:18.310Z,97693.75
2022-10-19T09:01:58.153Z,97681.94
2022-10-19T09:04:30.704Z,97693.22
2022-10-19T09:07:22.107Z,97689.75
2022-10-19T09:09:55.999Z,97688.88
2022-10-19T09:12:33.504Z,97686.28
2022-10-19T09:15:13.389Z,97694.91
2022-10-19T09:17:39.804Z,97695.78
2022-10-19T09:20:29.340Z,97692.31
2022-10-19T09:23:18.941Z,97692.25
2022-10-19T09:25:48.291Z,97681.09
2022-10-19T09:28:23.265Z,97687.13
2022-10-19T09:30:56.525Z,97689.56
2022-10-19T09:33:38.874Z,97690.53
2022-10-19T09:36:06.804Z,97694.81
2022-10-19T09:38:33.361Z,97693.81
2022-10-19T09:41:14.739Z,97699.81
2022-10-19T09:43:50.679Z,97705.19
2022-10-19T09:46:41.714Z,97699.25
2022-10-19T09:49:08.108Z,97705.34
2022-10-19T09:51:52.257Z,97706.25
2022-10-19T09:54:37.426Z,97703.72
2022-10-19T09:57:05.249Z,97708.91
2022-10-19T09:59:36.607Z,97712.31
2022-10-19T10:02:05.979Z,97709.75
2022-10-19T10:04:32.490Z,97707.19
2022-10-19T10:06:59.196Z,97714.03
2022-10-19T10:09:28.458Z,97719.16
2022-10-19T10:11:58.287Z,97718.28
2022-10-19T10:14:35.336Z,97732.00
2022-10-19T10:17:25.616Z,97722.50
2022-10-19T10:20:16.741Z,97728.50
2022-10-19T10:22:52.978Z,97726.72
2022-10-19T10:25:19.813Z,97724.16
2022-10-19T10:27:59.082Z,97723.25
2022-10-19T10:30:28.875Z,97721.53
2022-10-19T10:32:58.068Z,97719.00
2022-10-19T10:35:34.658Z,97716.47
2022-10-19T10:38:25.153Z,97713.91
2022-10-19T10:40:54.586Z,97710.53
2022-10-19T10:43:29.291Z,97709.63
2022-10-19T10:46:14.444Z,97709.56
2022-10-19T10:48:53.405Z,97708.63
2022-10-19T10:51:27.164Z,97705.19
2022-10-19T10:54:08.852Z,97697.47
2022-10-19T10:56:35.408Z,97697.44
2022-10-19T10:59:15.351Z,97695.75
2022-10-19T11:01:57.285Z,97699.09
2022-10-19T11:04:31.121Z,97699.19
2022-10-19T11:07:04.957Z,97704.44
2022-10-19T11:09:38.120Z,97681.28
2022-10-19T11:12:16.163Z,97678.75
2022-10-19T11:15:00.675Z,97679.47
2022-10-19T11:17:31.804Z,97668.56
2022-10-19T11:19:58.423Z,97654.03
2022-10-19T11:22:58.914Z,97638.09
2022-10-19T11:25:54.505Z,97627.59
2022-10-19T11:28:53.364Z,97626.75
2022-10-19T11:31:29.668Z,97629.06
2022-10-19T11:33:56.139Z,97625.50
2022-10-19T11:36:47.312Z,97613.66
2022-10-19T11:39:56.833Z,97611.16
2022-10-19T11:42:44.662Z,97607.47
2022-10-19T11:45:26.331Z,97587.69
2022-10-19T11:48:14.658Z,97584.94
2022-10-19T11:51:16.988Z,97570.44
2022-10-19T11:53:48.688Z,97567.41
2022-10-19T11:57:11.174Z,97571.47
2022-10-19T12:00:03.659Z,97564.63
2022-10-19T12:02:54.313Z,97574.16
2022-10-19T12:05:33.988Z,97579.56
2022-10-19T12:08:02.979Z,97567.88
2022-10-19T12:10:40.158Z,97562.72
2022-10-19T12:13:12.937Z,97559.78
2022-10-19T12:15:55.308Z,97548.81
2022-10-19T12:18:39.798Z,97546.44
2022-10-19T12:21:23.511Z,97536.09
2022-10-19T12:23:51.426Z,97550.59
2022-10-19T12:26:20.969Z,97533.94
2022-10-19T12:28:55.617Z,97528.63
2022-10-19T12:31:24.742Z,97526.28
2022-10-19T12:34:01.318Z,97530.41
2022-10-19T12:36:52.410Z,97531.72
2022-10-19T12:39:21.715Z,97514.06
2022-10-19T12:42:12.388Z,97513.84
2022-10-19T12:45:16.821Z,97494.81
2022-10-19T12:48:03.083Z,97507.09
2022-10-19T12:50:47.941Z,97517.31
2022-10-19T12:53:31.674Z,97521.13
2022-10-19T12:56:04.189Z,97527.06
2022-10-19T12:58:46.701Z,97522.72
2022-10-19T13:01:44.252Z,97513.84
2022-10-19T13:04:16.690Z,97518.41
2022-10-19T13:06:46.043Z,97511.78
2022-10-19T13:09:39.476Z,97495.44
2022-10-19T13:12:19.362Z,97512.41
2022-10-19T13:14:58.818Z,97497.69
2022-10-19T13:17:34.682Z,97498.13
2022-10-19T13:20:13.349Z,97489.69
2022-10-19T13:22:48.820Z,97477.03
2022-10-19T13:25:41.522Z,97480.81
2022-10-19T13:28:07.918Z,97479.75
2022-10-19T13:30:43.932Z,97480.56
2022-10-19T13:33:25.553Z,97473.91
2022-10-19T13:36:12.231Z,97479.09
2022-10-19T13:38:44.578Z,97475.63
2022-10-19T13:41:28.328Z,97472.56
2022-10-19T13:44:20.894Z,97479.28
2022-10-19T13:47:05.799Z,97464.97
2022-10-19T13:49:56.651Z,97461.03
2022-10-19T13:52:38.351Z,97456.59
2022-10-19T13:55:22.944Z,97454.59
2022-10-19T13:58:00.470Z,97456.81
2022-10-19T14:00:32.323Z,97461.22
2022-10-19T14:03:10.780Z,97462.78
2022-10-19T14:06:04.687Z,97458.16
2022-10-19T14:08:52.712Z,97461.75
2022-10-19T14:11:25.053Z,97461.66
2022-10-19T14:14:10.220Z,97453.28
2022-10-19T14:16:49.231Z,97451.25
2022-10-19T14:19:26.899Z,97446.91
2022-10-19T14:22:01.695Z,97443.88
2022-10-19T14:24:34.446Z,97435.22
2022-10-19T14:27:06.863Z,97434.59
2022-10-19T14:29:49.136Z,97436.72
2022-10-19T14:32:16.579Z,97441.75
2022-10-19T14:34:45.261Z,97441.00
2022-10-19T14:37:21.906Z,97439.00
2022-10-19T14:40:04.843Z,97452.34
2022-10-19T14:42:45.560Z,97441.25
2022-10-19T14:45:22.028Z,97447.50
2022-10-19T14:47:59.111Z,97440.44
2022-10-19T14:50:32.467Z,97437.75
2022-10-19T14:53:23.262Z,97442.75
2022-10-19T14:55:53.132Z,97438.41
2022-10-19T14:58:22.371Z,97443.81
2022-10-19T15:00:51.235Z,97436.25
2022-10-19T15:03:28.624Z,97434.34
2022-10-19T15:06:00.343Z,97444.78
2022-10-19T15:08:34.563Z,97442.81
2022-10-19T15:11:01.076Z,97440.06
2022-10-19T15:13:33.515Z,97435.50
2022-10-19T15:16:00.084Z,97437.13
2022-10-19T15:18:48.913Z,97435.69
2022-10-19T15:21:20.185Z,97431.97
2022-10-19T15:23:49.023Z,97437.44
2022-10-19T15:26:19.276Z,97441.56
2022-10-19T15:28:46.335Z,97444.56
2022-10-19T15:31:19.018Z,97442.25
2022-10-19T15:33:52.435Z,97449.34
2022-10-19T15:36:20.510Z,97454.69
2022-10-19T15:39:11.638Z,97448.78
2022-10-19T15:41:48.282Z,97448.03
2022-10-19T15:44:40.733Z,97445.59
2022-10-19T15:47:16.237Z,97454.22
2022-10-19T15:49:42.613Z,97443.94
2022-10-19T15:52:26.479Z,97440.53
2022-10-19T15:54:55.118Z,97450.00
2022-10-19T15:57:36.847Z,97447.38
2022-10-19T16:00:21.896Z,97455.94
2022-10-19T16:02:48.227Z,97445.56
2022-10-19T16:05:14.553Z,97443.81
2022-10-19T16:07:42.160Z,97454.06
2022-10-19T16:10:16.025Z,97447.94
2022-10-19T16:12:42.616Z,97444.44
2022-10-19T16:15:13.373Z,97437.53
2022-10-19T16:17:40.168Z,97441.75
2022-10-19T16:20:06.977Z,97433.06
2022-10-19T16:22:33.560Z,97428.72
2022-10-19T16:24:59.975Z,97436.38
2022-10-19T16:27:26.444Z,97431.94
2022-10-19T16:29:52.818Z,97423.28
2022-10-19T16:32:19.215Z,97420.59
2022-10-19T16:34:46.534Z,97419.69
2022-10-19T16:37:12.887Z,97411.00
2022-10-19T16:39:39.339Z,97410.03
2022-10-19T16:42:05.750Z,97415.06
2022-10-19T16:44:32.071Z,97409.84
2022-10-19T16:46:58.853Z,97414.84
2022-10-19T16:49:26.141Z,97408.75
2022-10-19T16:51:54.894Z,97410.31
2022-10-19T16:54:24.220Z,97415.34
2022-10-19T16:56:50.647Z,97412.69
2022-10-19T16:59:18.794Z,97409.22
2022-10-19T17:01:46.242Z,97414.25
2022-10-19T17:04:13.775Z,97414.09
2022-10-19T17:06:40.711Z,97423.41
2022-10-19T17:09:37.092Z,97422.44
2022-10-19T17:11:53.813Z,97416.44
2022-10-19T17:14:20.149Z,97423.25
2022-10-19T17:16:46.508Z,97431.78
2022-10-19T17:19:13.161Z,97426.69
2022-10-19T17:21:39.903Z,97427.44
2022-10-19T17:24:08.260Z,97429.09
2022-10-19T17:26:37.924Z,97435.91
2022-10-19T17:29:05.575Z,97425.56
2022-10-19T17:31:32.215Z,97439.31
2022-10-19T17:34:00.532Z,97438.41
2022-10-19T17:36:29.538Z,97445.31
2022-10-19T17:38:57.766Z,97440.16
2022-10-19T17:41:25.349Z,97441.78
2022-10-19T17:43:52.256Z,97444.44
2022-10-19T17:46:22.609Z,97445.31
2022-10-19T17:48:49.584Z,97435.75
2022-10-19T17:51:29.072Z,97445.06
2022-10-19T17:53:58.001Z,97437.22
2022-10-19T17:56:25.279Z,97425.16
2022-10-19T17:58:52.241Z,97428.66
2022-10-19T18:01:21.790Z,97421.84
2022-10-19T18:03:48.773Z,97425.22
2022-10-19T18:06:18.301Z,97426.00
2022-10-19T18:08:47.313Z,97423.50
2022-10-19T18:11:25.995Z,97414.97
2022-10-19T18:13:55.166Z,97419.25
2022-10-19T18:16:24.825Z,97414.88
2022-10-19T18:18:53.512Z,97412.31
2022-10-19T18:21:22.906Z,97410.53
2022-10-19T18:23:49.467Z,97411.41
2022-10-19T18:26:20.231Z,97416.53
2022-10-19T18:28:46.673Z,97407.94
2022-10-19T18:31:16.032Z,97411.25
2022-10-19T18:33:42.807Z,97399.19
2022-10-19T18:36:10.749Z,97401.72
2022-10-19T18:38:37.755Z,97392.22
2022-10-19T18:43:43.212Z,97396.56
2022-10-19T18:46:10.206Z,97389.63
2022-10-19T18:48:37.810Z,97387.88
2022-10-19T18:51:06.938Z,97382.56
2022-10-19T18:53:33.991Z,97386.78
2022-10-19T18:56:02.945Z,97388.41
2022-10-19T18:58:30.964Z,97378.97
2022-10-19T19:01:04.124Z,97392.56
2022-10-19T19:03:30.653Z,97394.97
2022-10-19T19:06:05.321Z,97394.00
2022-10-19T19:08:31.878Z,97410.03
2022-10-19T19:11:19.053Z,97402.09
2022-10-19T19:13:51.513Z,97404.50
2022-10-19T19:16:18.296Z,97400.09
2022-10-19T19:18:44.670Z,97389.63
2022-10-19T19:21:20.392Z,97392.16
2022-10-19T19:23:47.552Z,97388.50
2022-10-19T19:26:14.808Z,97382.50
2022-10-19T19:28:43.490Z,97390.22
2022-10-19T19:31:15.210Z,97394.38
2022-10-19T19:33:43.485Z,97400.31
2022-10-19T19:36:11.851Z,97388.16
2022-10-19T19:38:38.240Z,97394.03
2022-10-19T19:41:06.499Z,97402.59
2022-10-19T19:43:35.081Z,97400.88
2022-10-19T19:46:06.349Z,97406.69
2022-10-19T19:48:36.364Z,97404.00
2022-10-19T19:51:02.835Z,97407.41
2022-10-19T19:53:29.537Z,97412.38
2022-10-19T19:55:55.955Z,97396.91
2022-10-19T19:58:22.292Z,97400.34
2022-10-19T20:00:48.682Z,97392.56
2022-10-19T20:03:15.740Z,97401.09
2022-10-19T20:05:42.231Z,97402.69
2022-10-19T20:08:09.332Z,97404.44
2022-10-19T20:10:41.322Z,97398.41
2022-10-19T20:13:07.884Z,97390.75
2022-10-19T20:15:36.539Z,97398.41
2022-10-19T20:18:03.043Z,97407.81
2022-10-19T20:20:29.348Z,97410.25
2022-10-19T20:22:55.720Z,97404.91
2022-10-19T20:25:22.054Z,97409.78
2022-10-19T20:27:48.471Z,97408.75
2022-10-19T20:30:14.905Z,97416.28
2022-10-19T20:32:41.303Z,97410.22
2022-10-19T20:35:07.962Z,97416.91
2022-10-19T20:37:34.579Z,97408.28
2022-10-19T20:40:08.158Z,97410.94
2022-10-19T20:42:35.250Z,97404.81
2022-10-19T20:45:01.776Z,97405.59
2022-10-19T20:47:28.179Z,97397.88
2022-10-19T20:49:54.683Z,97403.78
2022-10-19T20:52:21.099Z,97400.31
2022-10-19T20:54:48.617Z,97406.25
2022-10-19T20:57:14.993Z,97402.13
2022-10-19T20:59:41.491Z,97393.75
2022-10-19T21:02:10.493Z,97394.50
2022-10-19T21:04:36.986Z,97389.25
2022-10-19T21:07:04.830Z,97390.94
2022-10-19T21:09:31.578Z,97385.81
2022-10-19T21:11:58.097Z,97381.38
2022-10-19T21:14:28.553Z,97389.75
2022-10-19T21:16:59.842Z,97388.00
2022-10-19T21:19:29.019Z,97385.47
2022-10-19T21:22:03.574Z,97386.22
2022-10-19T21:24:33.851Z,97378.56
2022-10-19T21:27:02.181Z,97378.47
2022-10-19T21:29:28.863Z,97388.72
2022-10-19T21:31:55.569Z,97385.19
2022-10-19T21:34:26.590Z,97386.66
2022-10-19T21:36:55.447Z,97385.56
2022-10-19T21:39:23.372Z,97386.31
2022-10-19T21:41:50.105Z,97378.56
2022-10-19T21:44:18.449Z,97393.97
2022-10-19T21:46:47.716Z,97370.03
2022-10-19T21:49:14.214Z,97377.69
2022-10-19T21:51:44.931Z,97385.28
2022-10-19T21:54:14.346Z,97381.81
2022-10-19T21:56:41.212Z,97388.56
2022-10-19T21:59:07.753Z,97384.94
2022-10-19T22:01:38.587Z,97384.00
2022-10-19T22:04:12.736Z,97386.56
2022-10-19T22:06:39.171Z,97379.69
2022-10-19T22:09:07.950Z,97382.97
2022-10-19T22:11:34.650Z,97375.09
2022-10-19T22:14:02.893Z,97385.28
2022-10-19T22:16:30.435Z,97381.75
2022-10-19T22:18:59.092Z,97371.66
2022-10-19T22:21:28.272Z,97368.19
2022-10-19T22:24:03.035Z,97371.75
2022-10-19T22:26:32.606Z,97372.50
2022-10-19T22:29:00.914Z,97374.22
2022-10-19T22:31:29.179Z,97374.97
2022-10-19T22:33:55.583Z,97375.66
2022-10-19T22:36:22.132Z,97362.00
2022-10-19T22:38:48.752Z,97375.53
2022-10-19T22:41:15.094Z,97362.81
2022-10-19T22:43:41.446Z,97364.44
2022-10-19T22:46:07.996Z,97366.94
2022-10-19T22:48:34.421Z,97358.41
2022-10-19T22:51:00.968Z,97361.66
2022-10-19T22:53:27.397Z,97363.38
2022-10-19T22:55:53.773Z,97358.22
2022-10-19T22:58:20.184Z,97345.53
2022-10-19T23:00:56.855Z,97345.53
2022-10-19T23:03:23.187Z,97331.69
2022-10-19T23:05:49.538Z,97346.91
2022-10-19T23:08:15.937Z,97348.47
2022-10-19T23:10:42.311Z,97346.53
2022-10-19T23:13:09.563Z,97346.72
2022-10-19T23:15:37.048Z,97350.81
2022-10-19T23:18:05.684Z,97346.53
2022-10-19T23:20:32.064Z,97349.84
2022-10-19T23:22:58.451Z,97347.16
2022-10-19T23:25:24.863Z,97350.63
2022-10-19T23:27:51.257Z,97348.84
2022-10-19T23:30:17.662Z,97344.56
2022-10-19T23:32:44.108Z,97354.66
2022-10-19T23:35:10.476Z,97363.16
2022-10-19T23:37:37.381Z,97360.47
2022-10-19T23:40:04.490Z,97355.38
2022-10-19T23:42:30.832Z,97351.88
2022-10-19T23:44:57.218Z,97348.41
2022-10-19T23:47:23.615Z,97348.41
2022-10-19T23:49:50.010Z,97350.88
2022-10-19T23:52:16.386Z,97349.88
2022-10-19T23:54:42.812Z,97351.50
2022-10-19T23:57:09.318Z,97348.81
2022-10-19T23:59:35.687Z,97350.56
